首页
METAR-TAF:

METAR-TAF

机场 :

Juigalpa, 尼加拉瓜

纬度: 12-06N, 经度: 085-22W, 海拔: 90米

当前天气观测

该预报发布于8小时和34分钟前的23:00 UTC
风速6节,风向
温度 33°C
湿度 41%
气压 1008 hPa
能见度10公里或以上
散云层高于2000英尺

METAR: MNJU 042300Z 09006KT 9999 SCT020 33/18 Q1008

时间: 01:34 (07:34 UTC)


TAF: 丢失

超过4000个机场的气象观测和天气预报(METAR&TAF报告)。

可查询的气象台以黄色和红色小点在地图上表示。

将鼠标移到小点上方,可查看气象台名称。

然后点击查看天气观测和预报。

如需切换地图:点击带黑十字的绿色按钮放大地图;点击带横线的绿色按钮缩小地图;或者点击绿色箭头查看邻近地区的地图。


METAR-TAF: